createdAt,value
2022-12-03T00:02:22.026Z,-0.60
2022-12-03T00:04:48.956Z,-0.60
2022-12-03T00:07:15.770Z,-0.60
2022-12-03T00:09:42.784Z,-0.60
2022-12-03T00:12:09.612Z,-0.60
2022-12-03T00:14:41.293Z,-0.70
2022-12-03T00:17:11.101Z,-0.70
2022-12-03T00:19:37.856Z,-0.70
2022-12-03T00:22:04.657Z,-0.80
2022-12-03T00:24:31.735Z,-0.80
2022-12-03T00:26:58.534Z,-0.80
2022-12-03T00:29:25.334Z,-0.70
2022-12-03T00:31:52.049Z,-0.80
2022-12-03T00:34:18.893Z,-0.90
2022-12-03T00:36:45.655Z,-0.90
2022-12-03T00:39:12.389Z,-0.90
2022-12-03T00:41:39.168Z,-0.80
2022-12-03T00:44:05.947Z,-0.90
2022-12-03T00:46:32.718Z,-0.90
2022-12-03T00:48:59.673Z,-0.90
2022-12-03T00:51:26.402Z,-0.90
2022-12-03T00:53:53.187Z,-0.90
2022-12-03T00:56:19.969Z,-0.90
2022-12-03T00:58:46.798Z,-0.90
2022-12-03T01:01:13.691Z,-0.90
2022-12-03T01:03:40.581Z,-0.90
2022-12-03T01:06:07.453Z,-0.80
2022-12-03T01:08:34.218Z,-0.90
2022-12-03T01:11:01.036Z,-0.90
2022-12-03T01:13:27.828Z,-0.90
2022-12-03T01:15:54.595Z,-0.90
2022-12-03T01:18:21.405Z,-0.90
2022-12-03T01:20:48.146Z,-0.90
2022-12-03T01:23:14.884Z,-0.90
2022-12-03T01:25:41.686Z,-0.90
2022-12-03T01:28:08.408Z,-0.90
2022-12-03T01:30:55.169Z,-0.80
2022-12-03T01:33:21.946Z,-0.90
2022-12-03T01:35:48.666Z,-0.90
2022-12-03T01:38:15.411Z,-0.90
2022-12-03T01:40:42.139Z,-0.90
2022-12-03T01:43:08.916Z,-0.90
2022-12-03T01:45:35.811Z,-0.90
2022-12-03T01:48:02.616Z,-0.90
2022-12-03T01:50:33.912Z,-1.00
2022-12-03T01:53:02.420Z,-1.00
2022-12-03T01:55:29.766Z,-1.00
2022-12-03T01:58:00.372Z,-1.00
2022-12-03T02:00:28.548Z,-0.90
2022-12-03T02:03:00.933Z,-1.00
2022-12-03T02:05:31.344Z,-0.90
2022-12-03T02:07:59.237Z,-0.90
2022-12-03T02:10:32.762Z,-0.90
2022-12-03T02:13:08.545Z,-0.90
2022-12-03T02:15:38.035Z,-0.90
2022-12-03T02:18:05.110Z,-0.90
2022-12-03T02:20:35.695Z,-0.90
2022-12-03T02:23:43.838Z,-0.90
2022-12-03T02:26:10.859Z,-1.00
2022-12-03T02:28:38.458Z,-0.90
2022-12-03T02:31:06.268Z,-1.00
2022-12-03T02:33:33.522Z,-1.00
2022-12-03T02:36:03.501Z,-1.00
2022-12-03T02:38:32.499Z,-1.10
2022-12-03T02:41:06.020Z,-1.10
2022-12-03T02:43:33.349Z,-1.20
2022-12-03T02:46:02.608Z,-1.20
2022-12-03T02:48:33.859Z,-1.20
2022-12-03T02:51:07.291Z,-1.10
2022-12-03T02:53:42.151Z,-1.20
2022-12-03T02:56:10.394Z,-1.20
2022-12-03T02:58:38.005Z,-1.20
2022-12-03T03:01:05.471Z,-1.20
2022-12-03T03:03:33.078Z,-1.20
2022-12-03T03:06:02.840Z,-1.10
2022-12-03T03:08:30.985Z,-1.20
2022-12-03T03:11:00.470Z,-1.20
2022-12-03T03:13:29.173Z,-1.20
2022-12-03T03:15:56.726Z,-1.20
2022-12-03T03:18:23.777Z,-1.20
2022-12-03T03:20:50.941Z,-1.20
2022-12-03T03:23:20.474Z,-1.20
2022-12-03T03:25:58.117Z,-1.30
2022-12-03T03:28:26.444Z,-1.30
2022-12-03T03:30:53.561Z,-1.30
2022-12-03T03:33:20.400Z,-1.30
2022-12-03T03:35:49.131Z,-1.30
2022-12-03T03:38:18.980Z,-1.20
2022-12-03T03:40:46.935Z,-1.30
2022-12-03T03:43:14.330Z,-1.40
2022-12-03T03:45:41.800Z,-1.30
2022-12-03T03:48:08.719Z,-1.30
2022-12-03T03:50:36.096Z,-1.30
2022-12-03T03:53:04.450Z,-1.20
2022-12-03T03:55:32.004Z,-1.20
2022-12-03T03:57:59.287Z,-1.20
2022-12-03T04:00:26.172Z,-1.30
2022-12-03T04:02:53.715Z,-1.20
2022-12-03T04:05:22.397Z,-1.20
2022-12-03T04:07:49.484Z,-1.30
2022-12-03T04:10:36.652Z,-1.30
2022-12-03T04:13:04.527Z,-1.30
2022-12-03T04:15:31.871Z,-1.30
2022-12-03T04:18:17.153Z,-1.30
2022-12-03T04:20:44.127Z,-1.30
2022-12-03T04:23:10.878Z,-1.30
2022-12-03T04:25:56.291Z,-1.20
2022-12-03T04:28:41.835Z,-1.30
2022-12-03T04:31:27.392Z,-1.30
2022-12-03T04:34:12.832Z,-1.20
2022-12-03T04:36:39.621Z,-1.20
2022-12-03T04:39:06.725Z,-1.20
2022-12-03T04:41:33.490Z,-1.30
2022-12-03T04:44:18.843Z,-1.30
2022-12-03T04:46:45.548Z,-1.20
2022-12-03T04:49:12.292Z,-1.20
2022-12-03T04:51:39.223Z,-1.20
2022-12-03T04:54:05.972Z,-1.30
2022-12-03T04:56:32.714Z,-1.20
2022-12-03T04:58:59.497Z,-1.20
2022-12-03T05:01:26.443Z,-1.20
2022-12-03T05:03:53.217Z,-1.20
2022-12-03T05:06:19.989Z,-1.20
2022-12-03T05:08:46.725Z,-1.10
2022-12-03T05:11:13.511Z,-1.10
2022-12-03T05:13:40.351Z,-1.00
2022-12-03T05:16:07.482Z,-1.00
2022-12-03T05:18:34.251Z,-1.00
2022-12-03T05:21:01.042Z,-1.00
2022-12-03T05:23:28.180Z,-1.00
2022-12-03T05:25:55.048Z,-0.90
2022-12-03T05:28:23.238Z,-0.80
2022-12-03T05:30:50.891Z,-0.80
2022-12-03T05:33:17.716Z,-0.80
2022-12-03T05:35:44.541Z,-0.80
2022-12-03T05:38:11.277Z,-0.80
2022-12-03T05:40:38.140Z,-0.90
2022-12-03T05:43:05.217Z,-0.90
2022-12-03T05:45:33.154Z,-0.70
2022-12-03T05:48:00.788Z,-0.90
2022-12-03T05:50:31.071Z,-0.90
2022-12-03T05:52:58.256Z,-0.90
2022-12-03T05:55:26.286Z,-1.00
2022-12-03T05:57:53.298Z,-1.00
2022-12-03T06:00:25.800Z,-1.10
2022-12-03T06:02:53.177Z,-1.10
2022-12-03T06:05:20.878Z,-1.10
2022-12-03T06:07:49.282Z,-1.00
2022-12-03T06:10:18.562Z,-0.90
2022-12-03T06:12:45.530Z,-0.90
2022-12-03T06:15:12.852Z,-1.00
2022-12-03T06:17:39.782Z,-0.80
2022-12-03T06:20:07.882Z,-0.90
2022-12-03T06:22:34.747Z,-0.80
2022-12-03T06:25:06.634Z,-0.90
2022-12-03T06:27:34.244Z,-1.00
2022-12-03T06:30:00.968Z,-1.00
2022-12-03T06:32:27.663Z,-1.00
2022-12-03T06:34:54.948Z,-0.90
2022-12-03T06:37:21.916Z,-0.90
2022-12-03T06:39:48.770Z,-1.00
2022-12-03T06:42:15.538Z,-0.90
2022-12-03T06:44:42.287Z,-0.90
2022-12-03T06:47:09.032Z,-0.90
2022-12-03T06:49:35.890Z,-0.80
2022-12-03T06:52:02.650Z,-0.80
2022-12-03T06:54:29.425Z,-0.90
2022-12-03T06:56:56.234Z,-0.80
2022-12-03T06:59:22.949Z,-0.80
2022-12-03T07:01:49.766Z,-0.80
2022-12-03T07:04:16.568Z,-0.90
2022-12-03T07:06:43.772Z,-0.90
2022-12-03T07:09:10.609Z,-1.00
2022-12-03T07:11:40.545Z,-1.00
2022-12-03T07:14:09.002Z,-1.00
2022-12-03T07:16:36.255Z,-1.00
2022-12-03T07:19:05.174Z,-1.00
2022-12-03T07:21:38.065Z,-1.00
2022-12-03T07:24:05.629Z,-1.00
2022-12-03T07:26:32.715Z,-1.10
2022-12-03T07:28:59.506Z,-1.10
2022-12-03T07:31:26.671Z,-1.10
2022-12-03T07:33:53.564Z,-1.10
2022-12-03T07:36:20.557Z,-1.10
2022-12-03T07:38:47.439Z,-1.10
2022-12-03T07:41:14.452Z,-1.20
2022-12-03T07:43:41.572Z,-1.20
2022-12-03T07:46:08.622Z,-1.20
2022-12-03T07:48:35.473Z,-1.40
2022-12-03T07:51:02.362Z,-1.30
2022-12-03T07:53:29.167Z,-1.30
2022-12-03T07:55:55.911Z,-1.30
2022-12-03T07:58:23.366Z,-1.30
2022-12-03T08:00:50.221Z,-1.30
2022-12-03T08:03:17.033Z,-1.30
2022-12-03T08:05:43.751Z,-1.50
2022-12-03T08:08:10.727Z,-1.40
2022-12-03T08:10:37.468Z,-1.40
2022-12-03T08:13:11.300Z,-1.40
2022-12-03T08:15:39.673Z,-1.30
2022-12-03T08:18:20.484Z,-1.30
2022-12-03T08:20:49.410Z,-1.30
2022-12-03T08:23:19.110Z,-1.30
2022-12-03T08:25:46.636Z,-1.20
2022-12-03T08:28:25.429Z,-1.10
2022-12-03T08:31:20.779Z,-1.20
2022-12-03T08:33:49.459Z,-1.20
2022-12-03T08:36:31.224Z,-1.20
2022-12-03T08:39:13.292Z,-1.10
2022-12-03T08:44:43.091Z,-1.10
2022-12-03T08:47:09.978Z,-1.10
2022-12-03T08:49:37.417Z,-1.00
2022-12-03T08:52:15.135Z,-1.10
2022-12-03T08:54:43.240Z,-1.10
2022-12-03T08:57:29.831Z,-1.10
2022-12-03T09:00:19.652Z,-1.10
2022-12-03T09:02:53.888Z,-1.20
2022-12-03T09:05:24.004Z,-1.20
2022-12-03T09:07:50.895Z,-1.30
2022-12-03T09:10:19.062Z,-1.20
2022-12-03T09:12:45.863Z,-1.20
2022-12-03T09:15:12.660Z,-1.10
2022-12-03T09:17:39.636Z,-1.10
2022-12-03T09:20:07.444Z,-1.20
2022-12-03T09:22:34.274Z,-1.30
2022-12-03T09:25:01.082Z,-1.30
2022-12-03T09:27:27.854Z,-1.20
2022-12-03T09:29:54.552Z,-1.30
2022-12-03T09:32:21.396Z,-1.30
2022-12-03T09:34:48.196Z,-1.20
2022-12-03T09:37:14.965Z,-1.30
2022-12-03T09:39:41.784Z,-1.40
2022-12-03T09:42:09.453Z,-1.30
2022-12-03T09:44:36.980Z,-1.40
2022-12-03T09:47:05.461Z,-1.40
2022-12-03T09:49:33.534Z,-1.50
2022-12-03T09:52:02.686Z,-1.60
2022-12-03T09:54:30.628Z,-1.70
2022-12-03T09:57:02.174Z,-1.70
2022-12-03T09:59:33.601Z,-1.80
2022-12-03T10:02:01.733Z,-1.80
2022-12-03T10:04:29.684Z,-1.70
2022-12-03T10:06:58.258Z,-1.70
2022-12-03T10:09:27.866Z,-1.90
2022-12-03T10:11:56.406Z,-1.80
2022-12-03T10:14:23.465Z,-1.90
2022-12-03T10:16:50.465Z,-2.00
2022-12-03T10:19:30.471Z,-1.90
2022-12-03T10:21:57.429Z,-2.00
2022-12-03T10:24:29.084Z,-2.00
2022-12-03T10:29:58.769Z,-2.00
2022-12-03T10:32:28.009Z,-1.90
2022-12-03T10:35:12.999Z,-1.70
2022-12-03T10:38:18.330Z,-1.80
2022-12-03T10:40:45.798Z,-1.70
2022-12-03T10:43:14.109Z,-1.70
2022-12-03T10:45:41.953Z,-1.70
2022-12-03T10:48:18.050Z,-1.60
2022-12-03T10:50:52.295Z,-1.60
2022-12-03T10:53:21.435Z,-1.60
2022-12-03T10:55:51.301Z,-1.60
2022-12-03T10:58:40.195Z,-1.70
2022-12-03T11:01:24.958Z,-1.60
2022-12-03T11:03:53.427Z,-1.60
2022-12-03T11:06:22.564Z,-1.60
2022-12-03T11:08:57.884Z,-1.50
2022-12-03T11:11:30.759Z,-1.60
2022-12-03T11:14:00.019Z,-1.60
2022-12-03T11:16:41.923Z,-1.60
2022-12-03T11:19:39.094Z,-1.70
2022-12-03T11:22:14.916Z,-1.80
2022-12-03T11:24:41.850Z,-1.70
2022-12-03T11:27:18.763Z,-1.60
2022-12-03T11:30:02.103Z,-1.60
2022-12-03T11:32:38.343Z,-1.80
2022-12-03T11:35:11.772Z,-1.90
2022-12-03T11:37:38.836Z,-1.90
2022-12-03T11:40:17.602Z,-1.80
2022-12-03T11:42:46.425Z,-1.70
2022-12-03T11:45:36.394Z,-1.70
2022-12-03T11:48:13.722Z,-1.70
2022-12-03T11:50:42.681Z,-1.60
2022-12-03T11:53:31.471Z,-1.70
2022-12-03T11:56:08.576Z,-1.50
2022-12-03T11:58:38.376Z,-1.70
2022-12-03T12:01:07.151Z,-1.60
2022-12-03T12:03:36.734Z,-1.70
2022-12-03T12:06:06.890Z,-1.80
2022-12-03T12:08:35.886Z,-1.90
2022-12-03T12:11:03.763Z,-1.90
2022-12-03T12:13:36.443Z,-2.00
2022-12-03T12:16:06.280Z,-2.10
2022-12-03T12:18:55.037Z,-2.00
2022-12-03T12:21:50.178Z,-2.10
2022-12-03T12:24:45.785Z,-2.10
2022-12-03T12:27:51.573Z,-2.10
2022-12-03T12:30:21.635Z,-2.20
2022-12-03T12:33:30.040Z,-2.10
2022-12-03T12:35:56.922Z,-2.00
2022-12-03T12:38:24.353Z,-2.10
2022-12-03T12:40:51.351Z,-2.10
2022-12-03T12:43:35.999Z,-2.10
2022-12-03T12:46:46.167Z,-2.00
2022-12-03T12:49:13.458Z,-2.10
2022-12-03T12:51:48.268Z,-2.20
2022-12-03T12:54:17.166Z,-2.20
2022-12-03T12:56:49.899Z,-2.20
2022-12-03T12:59:21.341Z,-2.10
2022-12-03T13:01:49.898Z,-2.10
2022-12-03T13:07:26.242Z,-2.20
2022-12-03T13:09:55.924Z,-2.10
2022-12-03T13:12:24.605Z,-2.00
2022-12-03T13:15:00.007Z,-2.00
2022-12-03T13:17:26.929Z,-2.10
2022-12-03T13:20:07.664Z,-2.10
2022-12-03T13:22:40.268Z,-2.10
2022-12-03T13:25:59.264Z,-2.20
2022-12-03T13:28:23.117Z,-2.20
2022-12-03T13:30:50.086Z,-2.30
2022-12-03T13:33:32.019Z,-2.30
2022-12-03T13:36:11.015Z,-2.30
2022-12-03T13:38:37.956Z,-2.30
2022-12-03T13:41:41.730Z,-2.30
2022-12-03T13:44:18.937Z,-2.30
2022-12-03T13:46:47.034Z,-2.20
2022-12-03T13:49:21.777Z,-2.30
2022-12-03T13:51:49.305Z,-2.30
2022-12-03T13:54:49.524Z,-2.30
2022-12-03T13:57:16.460Z,-2.30
2022-12-03T13:59:43.251Z,-2.40
2022-12-03T14:02:10.305Z,-2.30
2022-12-03T14:04:44.880Z,-2.30
2022-12-03T14:07:11.802Z,-2.20
2022-12-03T14:09:39.022Z,-2.40
2022-12-03T14:12:24.363Z,-2.40
2022-12-03T14:14:51.091Z,-2.30
2022-12-03T14:17:31.181Z,-2.20
2022-12-03T14:20:05.983Z,-2.20
2022-12-03T14:22:37.906Z,-2.20
2022-12-03T14:25:05.990Z,-2.30
2022-12-03T14:27:41.876Z,-2.30
2022-12-03T14:30:09.739Z,-2.30
2022-12-03T14:32:38.068Z,-2.30
2022-12-03T14:35:09.746Z,-2.40
2022-12-03T14:37:37.045Z,-2.40
2022-12-03T14:40:09.325Z,-2.40
2022-12-03T14:42:45.550Z,-2.40
2022-12-03T14:45:12.300Z,-2.40
2022-12-03T14:47:51.606Z,-2.40
2022-12-03T14:50:18.350Z,-2.40
2022-12-03T14:52:56.860Z,-2.50
2022-12-03T14:55:23.968Z,-2.40
2022-12-03T14:57:50.793Z,-2.40
2022-12-03T15:00:18.198Z,-2.40
2022-12-03T15:02:45.023Z,-2.40
2022-12-03T15:05:14.318Z,-2.40
2022-12-03T15:07:41.112Z,-2.40
2022-12-03T15:10:08.343Z,-2.40
2022-12-03T15:12:35.175Z,-2.30
2022-12-03T15:15:02.125Z,-2.40
2022-12-03T15:21:12.059Z,-2.30
2022-12-03T15:23:38.918Z,-2.20
2022-12-03T15:26:05.954Z,-2.30
2022-12-03T15:28:32.792Z,-2.30
2022-12-03T15:30:59.659Z,-2.40
2022-12-03T15:33:28.016Z,-2.30
2022-12-03T15:35:56.715Z,-2.30
2022-12-03T15:41:24.472Z,-2.20
2022-12-03T15:43:55.782Z,-2.20
2022-12-03T15:46:23.075Z,-2.10
2022-12-03T15:49:12.077Z,-2.20
2022-12-03T15:57:07.001Z,-2.10
2022-12-03T15:59:33.773Z,-2.10
2022-12-03T16:02:08.517Z,-2.00
2022-12-03T16:04:49.903Z,-2.10
2022-12-03T16:07:37.155Z,-2.10
2022-12-03T16:10:05.830Z,-2.00
2022-12-03T16:12:44.202Z,-2.00
2022-12-03T16:15:11.142Z,-2.00
2022-12-03T16:17:37.847Z,-1.90
2022-12-03T16:20:08.587Z,-1.90
2022-12-03T16:22:41.904Z,-1.90
2022-12-03T16:25:15.583Z,-1.80
2022-12-03T16:28:01.518Z,-1.90
2022-12-03T16:30:32.986Z,-1.80
2022-12-03T16:36:23.258Z,-1.60
2022-12-03T16:41:54.729Z,-1.60
2022-12-03T16:44:32.596Z,-1.60
2022-12-03T16:47:08.343Z,-1.60
2022-12-03T16:49:35.900Z,-1.60
2022-12-03T16:54:49.487Z,-1.70
2022-12-03T16:57:16.457Z,-1.60
2022-12-03T16:59:43.454Z,-1.60
2022-12-03T17:02:11.863Z,-1.60
2022-12-03T17:04:38.788Z,-1.70
2022-12-03T17:07:05.605Z,-1.70
2022-12-03T17:09:32.480Z,-1.80
2022-12-03T17:11:59.309Z,-1.70
2022-12-03T17:14:31.433Z,-1.70
2022-12-03T17:16:59.989Z,-1.70
2022-12-03T17:19:27.008Z,-1.80
2022-12-03T17:21:54.233Z,-1.70
2022-12-03T17:24:21.638Z,-1.70
2022-12-03T17:26:48.614Z,-1.70
2022-12-03T17:29:18.215Z,-1.70
2022-12-03T17:31:45.162Z,-1.70
2022-12-03T17:34:12.081Z,-1.70
2022-12-03T17:36:38.916Z,-1.70
2022-12-03T17:39:05.697Z,-1.80
2022-12-03T17:41:32.509Z,-1.80
2022-12-03T17:43:59.213Z,-1.80
2022-12-03T17:46:26.049Z,-1.80
2022-12-03T17:48:52.813Z,-1.80
2022-12-03T17:51:21.137Z,-1.80
2022-12-03T17:53:48.098Z,-1.70
2022-12-03T17:56:14.918Z,-1.80
2022-12-03T17:58:41.649Z,-1.80
2022-12-03T18:01:10.402Z,-1.70
2022-12-03T18:03:37.421Z,-1.70
2022-12-03T18:06:04.816Z,-1.70
2022-12-03T18:08:31.617Z,-1.80
2022-12-03T18:10:58.364Z,-1.80
2022-12-03T18:13:25.285Z,-1.80
2022-12-03T18:15:52.152Z,-1.80
2022-12-03T18:18:19.553Z,-1.80
2022-12-03T18:20:46.403Z,-1.80
2022-12-03T18:23:14.850Z,-1.80
2022-12-03T18:25:42.100Z,-1.80
2022-12-03T18:28:08.865Z,-1.80
2022-12-03T18:30:35.662Z,-1.80
2022-12-03T18:33:02.452Z,-1.80
2022-12-03T18:35:29.223Z,-1.80
2022-12-03T18:37:56.882Z,-1.90
2022-12-03T18:40:25.201Z,-1.90
2022-12-03T18:42:52.463Z,-1.80
2022-12-03T18:45:19.388Z,-1.90
2022-12-03T18:47:46.370Z,-2.10
2022-12-03T18:50:13.452Z,-2.20
2022-12-03T18:52:40.560Z,-2.10
2022-12-03T18:55:08.479Z,-2.10
2022-12-03T18:57:35.270Z,-2.10
2022-12-03T19:00:02.105Z,-2.10
2022-12-03T19:05:15.717Z,-2.30
2022-12-03T19:07:43.347Z,-2.40
2022-12-03T19:10:10.801Z,-2.30
2022-12-03T19:12:40.520Z,-2.30
2022-12-03T19:15:08.067Z,-2.20
2022-12-03T19:17:35.067Z,-2.10
2022-12-03T19:20:01.936Z,-2.10
2022-12-03T19:22:28.653Z,-2.10
2022-12-03T19:24:55.398Z,-2.10
2022-12-03T19:27:22.191Z,-2.00
2022-12-03T19:29:49.585Z,-2.00
2022-12-03T19:32:18.935Z,-2.10
2022-12-03T19:34:45.745Z,-2.20
2022-12-03T19:37:12.553Z,-2.30
2022-12-03T19:39:39.344Z,-2.40
2022-12-03T19:42:06.271Z,-2.40
2022-12-03T19:44:33.699Z,-2.40
2022-12-03T19:47:00.597Z,-2.40
2022-12-03T19:49:27.968Z,-2.40
2022-12-03T19:51:54.767Z,-2.50
2022-12-03T19:54:21.597Z,-2.60
2022-12-03T19:56:48.580Z,-2.60
2022-12-03T19:59:15.448Z,-2.70
2022-12-03T20:01:43.281Z,-2.70
2022-12-03T20:04:11.474Z,-2.70
2022-12-03T20:06:39.088Z,-2.80
2022-12-03T20:09:17.915Z,-2.70
2022-12-03T20:11:45.933Z,-2.70
2022-12-03T20:14:15.382Z,-2.80
2022-12-03T20:16:42.789Z,-2.80
2022-12-03T20:19:12.653Z,-2.70
2022-12-03T20:21:40.268Z,-2.70
2022-12-03T20:24:08.726Z,-2.80
2022-12-03T20:26:35.528Z,-2.80
2022-12-03T20:29:02.490Z,-2.80
2022-12-03T20:31:31.389Z,-2.90
2022-12-03T20:34:01.589Z,-3.00
2022-12-03T20:36:29.984Z,-3.10
2022-12-03T20:38:59.313Z,-3.00
2022-12-03T20:41:26.203Z,-3.00
2022-12-03T20:43:53.858Z,-3.00
2022-12-03T20:46:27.229Z,-3.20
2022-12-03T20:48:55.017Z,-3.20
2022-12-03T20:51:25.974Z,-3.20
2022-12-03T20:53:53.309Z,-3.10
2022-12-03T20:56:23.457Z,-3.00
2022-12-03T20:58:50.647Z,-3.00
2022-12-03T21:01:19.992Z,-3.10
2022-12-03T21:03:47.736Z,-3.20
2022-12-03T21:06:15.371Z,-3.30
2022-12-03T21:08:43.189Z,-3.40
2022-12-03T21:11:12.012Z,-3.40
2022-12-03T21:13:43.629Z,-3.40
2022-12-03T21:16:13.448Z,-3.40
2022-12-03T21:18:40.695Z,-3.30
2022-12-03T21:21:07.628Z,-3.30
2022-12-03T21:23:35.078Z,-3.30
2022-12-03T21:26:06.436Z,-3.40
2022-12-03T21:28:33.981Z,-3.50
2022-12-03T21:31:09.224Z,-3.50
2022-12-03T21:33:36.231Z,-3.50
2022-12-03T21:36:03.861Z,-3.50
2022-12-03T21:38:31.790Z,-3.50
2022-12-03T21:40:59.026Z,-3.50
2022-12-03T21:43:25.885Z,-3.60
2022-12-03T21:45:55.921Z,-3.50
2022-12-03T21:48:22.859Z,-3.50
2022-12-03T21:51:00.279Z,-3.50
2022-12-03T21:53:29.841Z,-3.50
2022-12-03T21:55:58.526Z,-3.50
2022-12-03T21:58:25.406Z,-3.50
2022-12-03T22:00:54.956Z,-3.50
2022-12-03T22:03:21.802Z,-3.60
2022-12-03T22:05:50.282Z,-3.60
2022-12-03T22:08:17.564Z,-3.60
2022-12-03T22:10:44.728Z,-3.60
2022-12-03T22:13:11.601Z,-3.60
2022-12-03T22:15:40.001Z,-3.60
2022-12-03T22:18:07.443Z,-3.60
2022-12-03T22:20:34.219Z,-3.50
2022-12-03T22:23:01.179Z,-3.60
2022-12-03T22:25:28.071Z,-3.60
2022-12-03T22:27:54.793Z,-3.70
2022-12-03T22:30:21.893Z,-3.70
2022-12-03T22:32:48.644Z,-3.70
2022-12-03T22:35:15.724Z,-3.80
2022-12-03T22:37:42.518Z,-3.80
2022-12-03T22:40:12.558Z,-3.80
2022-12-03T22:42:39.301Z,-3.70
2022-12-03T22:45:06.700Z,-3.70
2022-12-03T22:47:33.436Z,-3.70
2022-12-03T22:50:00.265Z,-3.70
2022-12-03T22:52:27.105Z,-3.70
2022-12-03T22:54:53.918Z,-3.70
2022-12-03T22:57:20.653Z,-3.80
2022-12-03T22:59:47.420Z,-3.80
2022-12-03T23:02:14.300Z,-3.90
2022-12-03T23:04:41.014Z,-4.00
2022-12-03T23:07:10.889Z,-3.90
2022-12-03T23:09:37.666Z,-3.90
2022-12-03T23:12:04.621Z,-4.00
2022-12-03T23:14:31.377Z,-3.90
2022-12-03T23:16:58.142Z,-3.90
2022-12-03T23:19:24.933Z,-3.90
2022-12-03T23:21:51.690Z,-3.90
2022-12-03T23:24:18.397Z,-4.00
2022-12-03T23:26:45.175Z,-4.00
2022-12-03T23:29:11.941Z,-4.00
2022-12-03T23:31:38.830Z,-4.10
2022-12-03T23:34:05.742Z,-4.10
2022-12-03T23:36:33.520Z,-4.10
2022-12-03T23:39:00.616Z,-4.10
2022-12-03T23:41:27.371Z,-4.10
2022-12-03T23:43:54.292Z,-4.10
2022-12-03T23:46:24.211Z,-4.10
2022-12-03T23:48:52.154Z,-4.00
2022-12-03T23:51:24.083Z,-4.10
2022-12-03T23:53:52.977Z,-4.20
2022-12-03T23:56:26.074Z,-4.20
2022-12-03T23:58:52.770Z,-4.10
